Time;durP1;ratioP1;P1;durP2;ratioP2;P2;SDS_P1;SDS_P2;PMS_P1;PMS_P2;Temp;Humidity;BMP_temperature;BMP_pressure;BME280_temperature;BME280_humidity;BME280_pressure;Samples;Min_cycle;Max_cycle;Signal;HPM_P1;HPM_P2
2021/03/10 00:02:17;;;;;;;27.73;18.40;;;7.70;50.60;;;;;;4977862;28;20103;-84
2021/03/10 00:04:43;;;;;;;24.73;17.83;;;7.70;50.70;;;;;;4978496;28;20034;-84
2021/03/10 00:07:08;;;;;;;27.57;19.57;;;7.70;50.80;;;;;;4995850;28;20027;-85
2021/03/10 00:09:34;;;;;;;27.47;19.47;;;7.70;50.90;;;;;;5005970;28;20030;-85
2021/03/10 00:12:00;;;;;;;26.03;18.23;;;7.70;50.90;;;;;;5014593;28;20113;-85
2021/03/10 00:14:25;;;;;;;29.63;19.83;;;7.70;51.00;;;;;;4996433;28;20050;-85
2021/03/10 00:16:51;;;;;;;28.10;18.67;;;7.60;51.50;;;;;;4990555;28;20034;-85
2021/03/10 00:19:17;;;;;;;27.07;19.20;;;7.60;51.10;;;;;;4980798;28;20072;-85
2021/03/10 00:21:43;;;;;;;27.57;19.10;;;7.60;51.20;;;;;;5013683;28;20038;-85
2021/03/10 00:24:09;;;;;;;28.00;18.73;;;7.60;51.20;;;;;;4994520;28;20026;-85
2021/03/10 00:26:35;;;;;;;29.20;19.53;;;7.60;51.40;;;;;;4995163;28;20026;-85
2021/03/10 00:29:00;;;;;;;26.77;18.87;;;7.60;51.30;;;;;;4995037;28;20025;-85
2021/03/10 00:31:26;;;;;;;26.27;18.93;;;7.60;51.50;;;;;;4975894;28;20046;-84
2021/03/10 00:33:52;;;;;;;29.70;19.60;;;7.50;51.60;;;;;;4981141;28;20060;-84
2021/03/10 00:36:17;;;;;;;28.13;19.10;;;7.50;51.80;;;;;;4995282;28;20030;-84
2021/03/10 00:38:43;;;;;;;27.33;19.33;;;7.50;51.90;;;;;;4977584;28;20117;-84
2021/03/10 00:41:09;;;;;;;27.00;19.57;;;7.40;51.90;;;;;;4975000;28;20072;-84
2021/03/10 00:43:34;;;;;;;26.83;19.27;;;7.40;52.00;;;;;;4975507;28;20026;-84
2021/03/10 00:46:00;;;;;;;30.83;20.07;;;7.50;52.00;;;;;;4996745;28;20061;-84
2021/03/10 00:48:26;;;;;;;29.17;19.43;;;7.50;52.00;;;;;;4980428;28;20018;-84
2021/03/10 00:50:51;;;;;;;32.63;20.10;;;7.50;52.20;;;;;;4985543;28;20034;-85
2021/03/10 00:53:17;;;;;;;31.83;19.30;;;7.40;52.10;;;;;;4997982;28;20027;-85
2021/03/10 00:55:43;;;;;;;28.30;18.77;;;7.50;52.10;;;;;;4980545;28;20038;-85
2021/03/10 00:58:09;;;;;;;26.40;19.90;;;7.50;52.10;;;;;;4973851;28;20061;-84
2021/03/10 01:00:34;;;;;;;29.77;18.67;;;7.50;52.20;;;;;;4979586;28;20109;-84
2021/03/10 01:03:00;;;;;;;30.33;19.33;;;7.50;52.30;;;;;;4996670;28;20030;-84
2021/03/10 01:05:26;;;;;;;28.60;20.10;;;7.50;52.30;;;;;;4977819;28;20034;-84
2021/03/10 01:07:52;;;;;;;27.57;20.23;;;7.50;52.30;;;;;;4981606;28;20034;-84
2021/03/10 01:10:18;;;;;;;29.30;19.33;;;7.40;52.30;;;;;;4982807;28;20026;-84
2021/03/10 01:12:44;;;;;;;29.37;20.33;;;7.40;52.30;;;;;;4994489;28;20434;-84
2021/03/10 01:15:19;;;;;;;27.80;19.03;;;7.40;52.40;;;;;;4977224;28;20050;-84
2021/03/10 01:17:45;;;;;;;28.77;19.93;;;7.40;52.60;;;;;;4992980;28;20034;-84
2021/03/10 01:20:14;;;;;;;25.63;18.63;;;7.40;52.60;;;;;;4973505;28;20034;-84
2021/03/10 01:22:40;;;;;;;26.63;18.73;;;7.40;52.80;;;;;;4980072;28;20103;-84
2021/03/10 01:25:07;;;;;;;27.27;19.60;;;7.30;52.80;;;;;;4971282;28;20034;-84
2021/03/10 01:27:33;;;;;;;27.83;19.50;;;7.30;52.90;;;;;;4977348;28;20114;-84
2021/03/10 01:29:59;;;;;;;26.70;18.87;;;7.30;52.90;;;;;;4979751;28;20046;-84
2021/03/10 01:32:24;;;;;;;30.30;19.97;;;7.30;53.00;;;;;;4979585;28;20489;-84
2021/03/10 01:34:50;;;;;;;28.13;18.27;;;7.30;53.10;;;;;;4995877;28;20026;-84
2021/03/10 01:37:16;;;;;;;30.90;19.13;;;7.30;53.20;;;;;;4974830;28;20031;-84
2021/03/10 01:39:42;;;;;;;28.90;18.97;;;7.30;53.10;;;;;;5001061;28;20617;-84
2021/03/10 01:42:08;;;;;;;25.33;17.73;;;7.30;53.20;;;;;;4982388;28;20477;-84
2021/03/10 01:44:34;;;;;;;27.93;20.13;;;7.30;53.30;;;;;;4979402;28;20031;-85
2021/03/10 01:47:03;;;;;;;28.97;20.03;;;7.30;53.20;;;;;;4989806;28;20056;-85
2021/03/10 01:49:29;;;;;;;25.20;18.53;;;7.20;53.30;;;;;;4995913;28;20041;-85
2021/03/10 01:51:55;;;;;;;26.53;19.50;;;7.20;53.50;;;;;;4998843;28;20030;-85
2021/03/10 01:54:21;;;;;;;26.23;18.57;;;7.30;53.50;;;;;;4996771;28;20099;-85
2021/03/10 01:56:47;;;;;;;25.27;18.20;;;7.30;53.50;;;;;;4998209;28;20435;-85
2021/03/10 01:59:13;;;;;;;27.37;20.50;;;7.30;53.50;;;;;;4969869;28;20375;-85
2021/03/10 02:01:39;;;;;;;34.27;21.43;;;7.30;53.60;;;;;;4992747;28;20113;-85
2021/03/10 02:04:06;;;;;;;29.63;20.37;;;7.30;53.60;;;;;;4997468;28;20042;-85
2021/03/10 02:06:59;;;;;;;30.00;21.60;;;7.30;53.70;;;;;;4975934;28;20406;-85
2021/03/10 02:09:45;;;;;;;32.15;20.73;;;7.20;53.80;;;;;;4977271;28;20042;-85
2021/03/10 02:12:35;;;;;;;31.43;20.77;;;7.30;53.70;;;;;;4968654;28;20026;-85
2021/03/10 02:15:24;;;;;;;33.20;21.03;;;7.30;53.70;;;;;;4983861;28;20050;-85
2021/03/10 02:17:54;;;;;;;30.77;21.50;;;7.20;53.60;;;;;;4986315;28;20351;-85
2021/03/10 02:20:19;;;;;;;30.30;20.47;;;7.10;53.80;;;;;;4971001;28;20018;-85
2021/03/10 02:23:03;;;;;;;29.07;21.30;;;7.20;53.90;;;;;;4978959;28;20482;-85
2021/03/10 02:25:56;;;;;;;27.67;19.83;;;7.20;54.00;;;;;;5001601;28;20029;-85
2021/03/10 02:28:22;;;;;;;27.40;18.00;;;7.20;54.10;;;;;;4988008;28;20295;-85
2021/03/10 02:30:51;;;;;;;26.37;17.50;;;7.20;54.00;;;;;;4982597;28;20053;-85
2021/03/10 02:33:20;;;;;;;30.67;18.27;;;7.20;54.20;;;;;;5001602;28;20077;-85
2021/03/10 02:35:50;;;;;;;29.00;19.93;;;7.20;54.20;;;;;;4990339;28;20393;-86
2021/03/10 02:38:19;;;;;;;30.40;20.23;;;7.20;54.90;;;;;;5006846;28;20457;-85
2021/03/10 02:40:46;;;;;;;32.57;21.23;;;7.20;54.30;;;;;;4998161;28;20512;-85
2021/03/10 02:43:13;;;;;;;31.73;21.57;;;7.20;54.30;;;;;;4989625;28;20334;-85
2021/03/10 02:45:40;;;;;;;30.20;21.27;;;7.20;54.30;;;;;;4982983;28;20035;-85
2021/03/10 02:48:07;;;;;;;32.07;20.47;;;7.20;54.50;;;;;;4981854;28;20030;-85
2021/03/10 02:50:33;;;;;;;30.43;21.93;;;7.20;54.40;;;;;;4980465;28;20034;-85
2021/03/10 02:53:03;;;;;;;34.33;20.73;;;7.20;54.40;;;;;;4981623;28;20023;-84
2021/03/10 02:55:29;;;;;;;31.83;21.97;;;7.20;54.50;;;;;;4990438;28;20038;-85
2021/03/10 02:57:56;;;;;;;40.90;25.80;;;7.20;54.50;;;;;;4973343;28;20389;-84
2021/03/10 03:00:23;;;;;;;38.97;25.53;;;7.20;54.60;;;;;;4970753;28;20410;-84
2021/03/10 03:02:49;;;;;;;36.00;24.03;;;7.10;54.60;;;;;;4977867;28;20035;-84
2021/03/10 03:05:16;;;;;;;32.13;21.93;;;7.10;54.70;;;;;;4981811;28;20441;-84
2021/03/10 03:07:44;;;;;;;29.57;21.17;;;7.10;54.70;;;;;;5000138;28;20037;-84
2021/03/10 03:10:17;;;;;;;32.10;23.83;;;7.10;54.80;;;;;;4981558;28;20026;-84
2021/03/10 03:12:44;;;;;;;34.83;23.53;;;7.10;54.90;;;;;;5000341;28;20109;-84
2021/03/10 03:15:15;;;;;;;36.77;23.53;;;7.10;54.90;;;;;;4979010;28;20185;-85
2021/03/10 03:17:42;;;;;;;31.17;23.13;;;7.10;55.10;;;;;;4956468;28;20027;-85
2021/03/10 03:20:08;;;;;;;35.73;25.10;;;7.10;55.20;;;;;;4966294;28;20035;-83
2021/03/10 03:22:40;;;;;;;33.67;23.20;;;7.10;55.20;;;;;;4958422;28;20024;-84
2021/03/10 03:25:08;;;;;;;28.95;20.90;;;7.00;55.00;;;;;;4962885;28;20062;-84
2021/03/10 03:27:34;;;;;;;33.87;20.37;;;7.00;55.20;;;;;;4985374;28;20029;-84
2021/03/10 03:30:00;;;;;;;33.60;21.40;;;7.10;55.20;;;;;;4964520;28;20479;-84
2021/03/10 03:32:28;;;;;;;31.80;22.13;;;7.10;55.20;;;;;;4975452;28;20026;-85
2021/03/10 03:34:55;;;;;;;31.47;21.43;;;7.10;55.20;;;;;;4964753;28;20061;-84
2021/03/10 03:37:23;;;;;;;31.00;22.10;;;7.10;55.30;;;;;;4965272;28;20023;-84
2021/03/10 03:39:50;;;;;;;32.37;21.80;;;7.10;55.70;;;;;;4971383;28;20053;-84
2021/03/10 03:42:17;;;;;;;30.60;21.77;;;7.10;55.40;;;;;;4965425;28;20022;-84
2021/03/10 03:44:43;;;;;;;31.27;21.33;;;7.10;55.40;;;;;;4961314;28;20137;-84
2021/03/10 03:47:12;;;;;;;28.93;19.57;;;7.00;55.50;;;;;;4972458;28;20143;-85
2021/03/10 03:49:41;;;;;;;29.33;21.40;;;7.00;55.60;;;;;;4979992;28;20023;-84
2021/03/10 03:52:07;;;;;;;35.77;22.07;;;7.00;55.80;;;;;;4949155;28;20026;-84
2021/03/10 03:54:33;;;;;;;33.70;22.83;;;7.00;55.80;;;;;;4960793;28;20077;-84
2021/03/10 03:56:59;;;;;;;34.07;23.23;;;7.00;56.00;;;;;;4966160;28;20485;-84
2021/03/10 03:59:25;;;;;;;31.77;22.30;;;7.10;56.00;;;;;;4968705;28;20029;-85
2021/03/10 04:01:50;;;;;;;33.80;22.23;;;7.10;56.00;;;;;;4974784;28;20370;-85
2021/03/10 04:04:16;;;;;;;36.20;21.77;;;7.10;56.10;;;;;;4962222;28;20122;-85
2021/03/10 04:07:00;;;;;;;37.87;22.67;;;7.10;56.10;;;;;;4975503;28;20591;-85
2021/03/10 04:09:26;;;;;;;37.13;22.00;;;7.00;56.20;;;;;;4968534;28;20022;-85
2021/03/10 04:11:52;;;;;;;43.80;22.67;;;7.00;56.10;;;;;;4964007;28;20034;-84
2021/03/10 04:14:19;;;;;;;32.03;22.23;;;7.10;56.20;;;;;;4988003;28;20070;-84
2021/03/10 04:16:45;;;;;;;34.60;23.13;;;7.10;56.20;;;;;;4984966;28;20488;-85
2021/03/10 04:19:12;;;;;;;32.53;22.80;;;7.10;56.30;;;;;;5012521;28;20044;-85
2021/03/10 04:21:38;;;;;;;30.53;22.00;;;7.00;56.40;;;;;;4997282;28;20042;-85
2021/03/10 04:24:05;;;;;;;31.60;21.80;;;7.00;56.50;;;;;;4988330;28;20432;-85
2021/03/10 04:26:31;;;;;;;26.83;20.33;;;7.00;56.60;;;;;;4994040;28;20027;-84
2021/03/10 04:28:57;;;;;;;31.13;22.27;;;7.00;56.50;;;;;;4984171;28;20033;-84
2021/03/10 04:31:22;;;;;;;28.33;19.83;;;7.10;56.50;;;;;;5012474;28;20026;-84
2021/03/10 04:33:48;;;;;;;33.50;22.47;;;7.10;56.50;;;;;;4979297;28;20027;-85
2021/03/10 04:36:14;;;;;;;31.97;23.03;;;7.00;56.50;;;;;;4986801;28;20033;-85
2021/03/10 04:38:40;;;;;;;29.17;20.57;;;7.00;56.60;;;;;;4982418;28;20811;-85
2021/03/10 04:41:05;;;;;;;32.77;21.43;;;7.00;56.90;;;;;;4973769;28;20081;-84
2021/03/10 04:43:31;;;;;;;32.53;20.83;;;7.00;56.90;;;;;;5008231;28;20026;-84
2021/03/10 04:45:57;;;;;;;31.37;20.90;;;7.00;57.10;;;;;;4977065;28;20033;-84
2021/03/10 04:48:22;;;;;;;31.40;21.57;;;6.90;57.30;;;;;;4981749;28;20018;-84
2021/03/10 04:50:49;;;;;;;35.73;22.90;;;6.90;57.40;;;;;;4998413;28;20030;-84
2021/03/10 04:53:15;;;;;;;33.23;22.87;;;6.90;57.40;;;;;;4995821;28;20027;-83
2021/03/10 04:55:41;;;;;;;34.80;23.53;;;7.00;57.40;;;;;;4977245;28;20041;-83
2021/03/10 04:58:07;;;;;;;36.37;24.17;;;6.90;57.30;;;;;;4975464;28;20037;-83
2021/03/10 05:00:33;;;;;;;32.17;23.03;;;6.90;57.50;;;;;;4992168;28;20092;-84
2021/03/10 05:02:58;;;;;;;28.57;20.03;;;6.90;57.50;;;;;;5011765;28;20026;-83
2021/03/10 05:05:24;;;;;;;28.67;19.87;;;6.90;57.50;;;;;;4971031;28;20368;-83
2021/03/10 05:07:50;;;;;;;31.27;20.50;;;6.90;57.50;;;;;;5005220;28;20489;-83
2021/03/10 05:10:16;;;;;;;27.70;20.40;;;6.90;57.80;;;;;;4974741;28;20054;-83
2021/03/10 05:12:42;;;;;;;33.57;20.87;;;6.90;57.80;;;;;;4976457;28;20023;-83
2021/03/10 05:15:08;;;;;;;28.03;19.50;;;6.90;57.80;;;;;;4972138;28;20073;-84
2021/03/10 05:17:35;;;;;;;36.70;22.30;;;6.90;58.00;;;;;;4977639;28;20050;-84
2021/03/10 05:20:01;;;;;;;23.40;18.40;;;6.90;58.10;;;;;;5001620;28;20033;-84
2021/03/10 05:22:28;;;;;;;30.93;20.67;;;6.90;58.20;;;;;;4977738;28;20066;-84
2021/03/10 05:24:54;;;;;;;34.23;21.97;;;6.90;58.70;;;;;;4990015;28;20550;-84
2021/03/10 05:27:20;;;;;;;34.83;23.37;;;6.90;58.20;;;;;;4988002;28;20053;-83
2021/03/10 05:29:46;;;;;;;45.73;24.37;;;6.90;58.30;;;;;;4974785;28;20037;-84
2021/03/10 05:32:12;;;;;;;36.40;24.17;;;6.80;58.30;;;;;;4986687;28;20026;-84
2021/03/10 05:34:38;;;;;;;37.63;24.20;;;6.80;58.40;;;;;;4988161;28;20053;-84
2021/03/10 05:37:04;;;;;;;35.03;23.47;;;6.90;58.40;;;;;;4977772;28;20484;-85
2021/03/10 05:39:30;;;;;;;41.33;23.73;;;6.80;58.40;;;;;;4979494;28;20032;-85
2021/03/10 05:41:57;;;;;;;32.50;21.70;;;6.80;58.60;;;;;;4985474;28;20030;-85
2021/03/10 05:44:24;;;;;;;40.77;24.60;;;6.80;58.90;;;;;;4970748;28;20031;-85
2021/03/10 05:46:50;;;;;;;37.53;25.50;;;6.80;58.80;;;;;;4996997;28;20106;-85
2021/03/10 05:49:16;;;;;;;40.13;23.60;;;6.90;58.80;;;;;;4973143;28;20096;-85
2021/03/10 05:51:41;;;;;;;37.87;25.40;;;6.90;58.80;;;;;;4977294;28;20074;-85
2021/03/10 05:54:07;;;;;;;34.57;24.37;;;6.80;58.90;;;;;;4977766;28;20034;-85
2021/03/10 05:56:34;;;;;;;38.50;24.77;;;6.90;58.90;;;;;;5007843;28;20038;-84
2021/03/10 05:59:02;;;;;;;34.93;24.40;;;6.80;58.90;;;;;;4979484;28;20464;-84
2021/03/10 06:01:28;;;;;;;40.37;26.07;;;6.80;58.90;;;;;;4988042;28;20030;-84
2021/03/10 06:03:59;;;;;;;34.07;23.30;;;6.80;59.00;;;;;;4979462;28;20034;-84
2021/03/10 06:06:26;;;;;;;38.03;25.20;;;6.70;59.20;;;;;;4959247;28;20107;-84
2021/03/10 06:08:52;;;;;;;36.97;23.93;;;6.70;59.20;;;;;;4981213;28;20026;-84
2021/03/10 06:11:25;;;;;;;36.17;24.03;;;6.70;59.20;;;;;;4983573;28;20054;-84
2021/03/10 06:13:53;;;;;;;38.20;24.30;;;6.70;59.40;;;;;;4992157;28;20042;-84
2021/03/10 06:16:24;;;;;;;34.03;24.57;;;6.60;59.40;;;;;;4980611;28;20481;-84
2021/03/10 06:19:02;;;;;;;40.13;25.33;;;6.60;59.70;;;;;;4992859;28;20073;-84
2021/03/10 06:21:28;;;;;;;33.83;24.37;;;6.60;59.90;;;;;;4973861;28;20030;-84
2021/03/10 06:24:02;;;;;;;37.60;27.20;;;6.70;59.90;;;;;;4992488;28;20488;-84
2021/03/10 06:26:34;;;;;;;40.53;27.20;;;6.70;59.90;;;;;;4992883;28;20092;-84
2021/03/10 06:29:02;;;;;;;42.30;28.40;;;6.70;59.80;;;;;;4979558;28;20026;-84
2021/03/10 06:31:31;;;;;;;41.97;28.63;;;6.70;59.70;;;;;;4980496;28;20030;-85
2021/03/10 06:34:05;;;;;;;39.73;27.70;;;6.70;59.80;;;;;;4976908;28;20026;-85
2021/03/10 06:36:50;;;;;;;44.90;28.50;;;6.60;60.10;;;;;;5011942;28;20031;-85
2021/03/10 06:39:30;;;;;;;41.80;26.07;;;6.70;60.20;;;;;;4973988;28;20477;-85
2021/03/10 06:41:57;;;;;;;39.40;26.53;;;6.80;60.10;;;;;;4969807;28;20034;-85
2021/03/10 06:44:24;;;;;;;37.37;25.73;;;6.80;59.80;;;;;;4979458;28;20041;-85
2021/03/10 06:46:57;;;;;;;42.70;25.77;;;6.80;59.60;;;;;;5004523;28;20097;-85
2021/03/10 06:49:28;;;;;;;42.10;26.27;;;6.70;59.70;;;;;;4978148;28;20030;-85
2021/03/10 06:52:09;;;;;;;43.20;27.90;;;6.70;59.70;;;;;;4976179;28;20030;-84
2021/03/10 06:54:35;;;;;;;40.37;26.87;;;6.60;60.00;;;;;;4982798;28;20053;-85
2021/03/10 06:57:12;;;;;;;38.50;26.97;;;6.70;60.00;;;;;;4997992;28;20030;-85
2021/03/10 06:59:40;;;;;;;39.33;26.97;;;6.70;60.00;;;;;;5001201;28;20026;-85
2021/03/10 07:02:20;;;;;;;41.90;26.00;;;6.80;60.00;;;;;;4986032;28;20117;-85
2021/03/10 07:04:52;;;;;;;39.50;25.93;;;6.80;59.90;;;;;;4995113;28;20041;-84
2021/03/10 07:07:19;;;;;;;43.53;26.65;;;6.80;59.90;;;;;;4984024;28;20042;-84
2021/03/10 07:09:45;;;;;;;51.43;27.90;;;6.80;59.90;;;;;;5005591;28;20042;-85
2021/03/10 07:12:14;;;;;;;42.93;27.67;;;6.80;60.00;;;;;;4978015;28;20049;-84
2021/03/10 07:14:39;;;;;;;43.50;27.97;;;6.80;60.20;;;;;;5001689;28;20050;-85
2021/03/10 07:17:07;;;;;;;44.13;27.67;;;6.80;60.40;;;;;;5000301;28;20511;-84
2021/03/10 07:19:33;;;;;;;39.90;27.60;;;6.80;60.40;;;;;;4978072;28;20041;-84
2021/03/10 07:22:05;;;;;;;47.80;28.53;;;6.90;60.50;;;;;;4976013;28;20026;-84
2021/03/10 07:24:36;;;;;;;43.53;27.77;;;6.80;60.60;;;;;;5007958;28;20477;-85
2021/03/10 07:27:05;;;;;;;39.27;27.70;;;6.80;60.70;;;;;;5011119;28;20065;-84
2021/03/10 07:29:35;;;;;;;39.30;27.77;;;6.80;60.70;;;;;;4982342;28;20026;-84
2021/03/10 07:32:04;;;;;;;41.70;28.03;;;6.90;61.00;;;;;;4980565;28;20048;-84
2021/03/10 07:34:30;;;;;;;40.77;27.40;;;6.90;61.00;;;;;;4982907;28;20481;-84
2021/03/10 07:36:56;;;;;;;40.13;28.67;;;7.00;61.00;;;;;;4982354;28;20595;-84
2021/03/10 07:39:27;;;;;;;44.77;29.70;;;7.00;61.10;;;;;;4976010;28;20112;-84
2021/03/10 07:41:53;;;;;;;43.90;29.80;;;7.00;61.20;;;;;;4983432;28;20038;-84
2021/03/10 07:44:24;;;;;;;48.30;29.67;;;7.00;61.30;;;;;;4984743;28;20045;-84
2021/03/10 07:47:11;;;;;;;47.43;30.10;;;7.00;61.40;;;;;;4996765;28;20109;-84
2021/03/10 07:49:38;;;;;;;51.83;30.07;;;7.00;61.60;;;;;;4979539;28;20034;-84
2021/03/10 07:52:11;;;;;;;51.07;30.73;;;6.90;61.50;;;;;;4981832;28;20393;-84
2021/03/10 07:54:39;;;;;;;48.00;30.33;;;7.00;61.70;;;;;;4998420;28;20021;-84
2021/03/10 07:57:13;;;;;;;43.00;29.87;;;7.00;61.80;;;;;;4999783;28;20030;-84
2021/03/10 08:00:03;;;;;;;42.87;30.00;;;7.00;62.00;;;;;;4982600;28;20038;-84
2021/03/10 08:02:50;;;;;;;45.13;30.60;;;7.00;62.10;;;;;;4992738;28;20402;-84
2021/03/10 08:05:22;;;;;;;43.37;28.97;;;7.00;62.10;;;;;;4983307;28;20062;-84
2021/03/10 08:07:49;;;;;;;43.90;30.37;;;7.10;62.10;;;;;;4978087;28;20021;-84
2021/03/10 08:10:27;;;;;;;45.90;30.67;;;7.10;62.00;;;;;;4982864;28;20112;-85
2021/03/10 08:12:53;;;;;;;42.47;30.33;;;7.10;62.10;;;;;;4975901;28;20473;-85
2021/03/10 08:15:23;;;;;;;50.23;32.87;;;7.10;62.00;;;;;;4972095;28;20078;-84
2021/03/10 08:17:49;;;;;;;47.50;30.67;;;7.20;62.10;;;;;;4955959;28;20037;-84
2021/03/10 08:20:15;;;;;;;41.67;29.80;;;7.20;62.00;;;;;;4961959;28;20479;-84
2021/03/10 08:22:41;;;;;;;45.53;30.80;;;7.20;62.10;;;;;;4959457;28;20041;-84
2021/03/10 08:25:13;;;;;;;43.27;29.87;;;7.20;62.00;;;;;;4961593;28;20026;-84
2021/03/10 08:27:41;;;;;;;45.27;31.00;;;7.20;62.10;;;;;;4958552;28;20050;-84
2021/03/10 08:30:10;;;;;;;43.30;30.97;;;7.20;62.00;;;;;;4961057;28;20027;-84
2021/03/10 08:32:36;;;;;;;47.67;31.83;;;7.20;61.80;;;;;;4964410;28;20026;-84
2021/03/10 08:35:10;;;;;;;45.83;31.67;;;7.00;61.80;;;;;;4962257;28;20034;-84
2021/03/10 08:37:37;;;;;;;52.13;33.03;;;7.00;62.30;;;;;;4960085;28;20027;-84
2021/03/10 08:40:05;;;;;;;50.20;32.33;;;6.90;62.40;;;;;;4975105;28;20038;-84
2021/03/10 08:42:31;;;;;;;46.83;32.73;;;7.00;62.50;;;;;;4961438;28;20521;-84
2021/03/10 08:44:57;;;;;;;37.17;26.50;;;6.90;62.40;;;;;;4978440;28;20019;-84
2021/03/10 08:47:25;;;;;;;44.33;30.60;;;7.00;62.80;;;;;;4962047;28;20126;-84
2021/03/10 08:49:56;;;;;;;51.70;35.53;;;7.10;62.50;;;;;;4961095;28;20047;-84
2021/03/10 08:52:24;;;;;;;50.60;34.37;;;7.10;62.70;;;;;;4966213;28;20117;-84
2021/03/10 08:54:54;;;;;;;46.47;32.90;;;7.10;63.00;;;;;;4959353;28;20363;-85
2021/03/10 08:57:26;;;;;;;55.03;36.40;;;7.20;63.20;;;;;;4951713;28;20077;-84
2021/03/10 08:59:52;;;;;;;43.47;31.55;;;7.20;63.10;;;;;;4971228;28;20027;-84
2021/03/10 09:02:29;;;;;;;47.87;31.67;;;7.30;63.10;;;;;;4962539;28;20093;-84
2021/03/10 09:04:55;;;;;;;48.97;30.87;;;7.40;63.10;;;;;;4959211;28;20094;-84
2021/03/10 09:07:21;;;;;;;58.17;35.53;;;7.50;62.90;;;;;;4974487;28;20034;-84
2021/03/10 09:09:52;;;;;;;58.67;37.93;;;7.40;62.80;;;;;;4979201;28;20076;-84
2021/03/10 09:12:18;;;;;;;51.37;35.10;;;7.40;63.10;;;;;;4969782;28;20588;-84
2021/03/10 09:14:44;;;;;;;55.30;38.03;;;7.40;63.50;;;;;;4978850;28;20117;-84
2021/03/10 09:17:11;;;;;;;53.87;35.37;;;7.40;63.50;;;;;;4977109;28;20445;-84
2021/03/10 09:19:43;;;;;;;53.70;35.77;;;7.40;63.60;;;;;;4979974;28;20050;-84
2021/03/10 09:22:19;;;;;;;53.85;36.67;;;7.40;64.00;;;;;;5002868;28;20022;-84
2021/03/10 09:25:14;;;;;;;50.70;34.50;;;7.30;63.70;;;;;;4977726;28;20044;-84
2021/03/10 09:27:40;;;;;;;47.43;32.83;;;7.20;64.00;;;;;;4985971;28;20045;-84
2021/03/10 09:30:28;;;;;;;66.40;33.70;;;7.20;64.00;;;;;;4974945;28;20385;-84
2021/03/10 09:32:54;;;;;;;79.37;39.23;;;7.30;64.20;;;;;;4974863;28;20504;-85
2021/03/10 09:35:22;;;;;;;78.60;37.37;;;7.30;63.50;;;;;;4980199;28;20654;-83
2021/03/10 09:37:58;;;;;;;38.73;26.40;;;7.30;63.80;;;;;;4998550;28;20050;-82
2021/03/10 09:40:33;;;;;;;48.70;30.40;;;7.20;63.60;;;;;;4982991;28;20073;-82
2021/03/10 09:43:01;;;;;;;47.53;33.47;;;7.20;63.50;;;;;;4993426;28;20034;-83
2021/03/10 09:45:29;;;;;;;41.67;28.77;;;7.40;63.70;;;;;;4984487;28;20022;-82
2021/03/10 09:47:55;;;;;;;39.33;26.67;;;7.50;63.70;;;;;;4983866;28;20026;-82
2021/03/10 09:50:30;;;;;;;39.03;25.77;;;7.50;63.40;;;;;;4991502;28;20033;-82
2021/03/10 09:52:57;;;;;;;38.47;23.90;;;7.50;63.30;;;;;;4975235;28;20085;-82
2021/03/10 09:55:25;;;;;;;33.47;22.63;;;7.50;63.30;;;;;;4979739;28;20125;-82
2021/03/10 09:58:08;;;;;;;34.20;22.93;;;7.60;63.30;;;;;;4980267;28;20043;-82
2021/03/10 10:00:36;;;;;;;32.10;23.97;;;7.50;63.10;;;;;;5006693;28;20089;-83
2021/03/10 10:03:02;;;;;;;31.67;22.63;;;7.50;63.10;;;;;;4991230;28;20026;-83
2021/03/10 10:05:30;;;;;;;36.37;24.67;;;7.50;63.00;;;;;;5001457;28;20093;-83
2021/03/10 10:07:57;;;;;;;39.50;24.40;;;7.50;62.80;;;;;;4988585;28;20034;-83
2021/03/10 10:10:27;;;;;;;35.57;23.83;;;7.50;63.10;;;;;;4990354;28;20026;-83
2021/03/10 10:12:54;;;;;;;35.13;24.47;;;7.60;63.00;;;;;;4995177;28;20102;-83
2021/03/10 10:15:26;;;;;;;39.97;24.97;;;7.60;62.90;;;;;;4978520;28;20053;-83
2021/03/10 10:17:54;;;;;;;33.43;23.30;;;7.60;62.90;;;;;;5002199;28;20039;-83
2021/03/10 10:20:23;;;;;;;28.73;20.70;;;7.60;62.90;;;;;;4982257;28;20034;-82
2021/03/10 10:22:53;;;;;;;29.03;20.03;;;7.60;62.70;;;;;;5001090;28;20030;-83
2021/03/10 10:25:20;;;;;;;25.77;19.73;;;7.60;62.70;;;;;;4980215;28;20026;-83
2021/03/10 10:27:47;;;;;;;33.80;21.83;;;7.70;62.60;;;;;;5011283;28;20118;-82
2021/03/10 10:30:16;;;;;;;29.10;21.20;;;7.70;62.30;;;;;;4982309;28;20381;-83
2021/03/10 10:32:43;;;;;;;27.40;19.83;;;7.60;62.10;;;;;;4990167;28;20029;-82
2021/03/10 10:35:10;;;;;;;29.10;21.73;;;7.60;62.50;;;;;;5000231;28;20022;-83
2021/03/10 10:37:36;;;;;;;30.53;22.13;;;7.60;62.50;;;;;;5004895;28;20442;-83
2021/03/10 10:40:03;;;;;;;36.30;24.53;;;7.60;62.70;;;;;;5000236;28;20061;-83
2021/03/10 10:42:29;;;;;;;34.90;23.23;;;7.70;62.50;;;;;;4981186;28;20037;-82
2021/03/10 10:44:55;;;;;;;36.67;24.27;;;7.70;63.30;;;;;;4992054;28;20365;-83
2021/03/10 10:47:22;;;;;;;36.47;24.07;;;7.80;62.60;;;;;;4981785;28;20030;-83
2021/03/10 10:49:48;;;;;;;32.20;23.77;;;7.80;62.60;;;;;;4984693;28;20131;-83
2021/03/10 10:52:14;;;;;;;40.17;25.97;;;7.90;62.90;;;;;;5003082;28;20092;-83
2021/03/10 10:54:39;;;;;;;37.30;24.83;;;7.90;63.00;;;;;;4997938;28;20030;-83
2021/03/10 10:57:06;;;;;;;33.77;22.43;;;8.10;63.20;;;;;;4978692;28;20033;-83
2021/03/10 10:59:32;;;;;;;33.17;23.47;;;8.10;63.00;;;;;;4980603;28;20080;-83
2021/03/10 11:01:58;;;;;;;29.10;21.57;;;8.00;62.70;;;;;;4994598;28;20428;-83
2021/03/10 11:04:24;;;;;;;28.47;19.97;;;8.00;63.00;;;;;;4982102;28;20777;-83
2021/03/10 11:06:50;;;;;;;30.60;21.20;;;8.00;63.10;;;;;;4987410;28;20106;-83
2021/03/10 11:09:15;;;;;;;29.23;20.17;;;8.10;63.00;;;;;;4983770;28;20980;-84
2021/03/10 11:11:41;;;;;;;29.23;19.80;;;8.10;62.80;;;;;;4983419;28;20026;-83
2021/03/10 11:14:07;;;;;;;27.87;20.63;;;8.10;62.70;;;;;;4986571;28;20054;-82
2021/03/10 11:16:33;;;;;;;28.10;20.50;;;8.10;62.90;;;;;;4964453;28;20038;-83
2021/03/10 11:18:59;;;;;;;29.50;20.53;;;8.20;63.00;;;;;;4962251;28;20030;-83
2021/03/10 11:21:25;;;;;;;27.47;19.67;;;8.30;63.00;;;;;;4972141;28;20465;-82
2021/03/10 11:23:50;;;;;;;25.17;19.17;;;8.30;62.90;;;;;;4991022;28;20031;-83
2021/03/10 11:26:16;;;;;;;26.30;17.60;;;8.40;62.90;;;;;;4988382;28;20041;-82
2021/03/10 11:28:42;;;;;;;22.63;17.27;;;8.50;62.80;;;;;;4962068;28;20074;-83
2021/03/10 11:31:09;;;;;;;24.33;17.80;;;8.40;62.60;;;;;;4978067;28;20462;-84
2021/03/10 11:33:38;;;;;;;22.93;16.03;;;8.50;62.60;;;;;;4986121;28;20054;-84
2021/03/10 11:36:06;;;;;;;24.40;17.53;;;8.60;62.40;;;;;;4988018;28;20062;-85
2021/03/10 11:38:34;;;;;;;26.10;18.43;;;8.60;62.40;;;;;;4964046;28;20470;-84
2021/03/10 11:41:00;;;;;;;28.40;18.67;;;8.70;62.20;;;;;;4960238;28;20074;-84
2021/03/10 11:43:26;;;;;;;25.33;18.80;;;8.70;62.10;;;;;;4981200;28;20410;-85
2021/03/10 11:45:52;;;;;;;25.97;17.73;;;8.70;62.00;;;;;;4953382;28;20042;-84
2021/03/10 11:48:17;;;;;;;23.73;18.00;;;8.80;62.00;;;;;;4973369;28;20105;-85
2021/03/10 11:50:43;;;;;;;23.93;17.90;;;8.80;61.70;;;;;;4954334;28;20034;-84
2021/03/10 11:53:10;;;;;;;24.57;17.27;;;8.80;61.60;;;;;;4958559;28;20054;-84
2021/03/10 11:55:37;;;;;;;22.60;15.90;;;8.80;61.50;;;;;;4959131;28;20172;-85
2021/03/10 11:58:03;;;;;;;22.73;16.03;;;8.90;61.30;;;;;;4957772;28;20126;-84
2021/03/10 12:00:29;;;;;;;24.30;17.10;;;8.90;61.20;;;;;;4957136;28;20031;-85
2021/03/10 12:02:55;;;;;;;23.50;17.10;;;8.90;61.00;;;;;;4970689;28;20034;-85
2021/03/10 12:05:21;;;;;;;22.50;16.67;;;9.00;60.90;;;;;;4963397;28;20041;-85
2021/03/10 12:07:48;;;;;;;20.87;15.97;;;8.90;60.80;;;;;;4987108;28;20097;-85
2021/03/10 12:10:14;;;;;;;22.77;15.63;;;9.00;60.80;;;;;;4963744;28;20029;-85
2021/03/10 12:12:40;;;;;;;19.47;14.77;;;9.00;60.70;;;;;;4964066;28;20561;-85
2021/03/10 12:15:07;;;;;;;20.60;14.53;;;9.00;60.60;;;;;;5006589;28;20074;-85
2021/03/10 12:17:34;;;;;;;20.60;14.97;;;9.10;60.40;;;;;;4984089;28;20030;-85
2021/03/10 12:20:00;;;;;;;24.07;16.70;;;9.00;60.20;;;;;;5000163;28;20054;-85
2021/03/10 12:22:26;;;;;;;25.23;17.87;;;9.00;60.20;;;;;;4980254;28;20029;-85
2021/03/10 12:24:52;;;;;;;25.33;17.87;;;9.00;60.30;;;;;;4985746;28;20035;-85
2021/03/10 12:27:24;;;;;;;25.13;17.87;;;8.90;60.30;;;;;;4997264;28;20551;-86
2021/03/10 12:29:55;;;;;;;25.05;16.75;;;9.00;60.50;;;;;;4983488;28;20065;-85
2021/03/10 12:32:27;;;;;;;25.47;16.90;;;9.00;60.50;;;;;;4982458;28;20037;-85
2021/03/10 12:34:54;;;;;;;24.75;15.15;;;9.00;60.50;;;;;;4978183;28;20036;-85
2021/03/10 12:37:20;;;;;;;23.37;15.27;;;9.10;60.60;;;;;;4967409;28;20043;-85
2021/03/10 12:39:46;;;;;;;19.40;14.57;;;9.10;60.40;;;;;;4989964;28;20449;-85
2021/03/10 12:42:14;;;;;;;18.20;14.30;;;9.10;60.30;;;;;;4982567;28;20027;-85